createdAt,value
2018-05-19T00:00:26.694Z,47.80
2018-05-19T00:01:26.706Z,50.00
2018-05-19T00:02:26.732Z,54.20
2018-05-19T00:03:26.750Z,55.00
2018-05-19T00:04:26.772Z,48.10
2018-05-19T00:05:26.785Z,52.10
2018-05-19T00:06:26.811Z,50.70
2018-05-19T00:07:26.824Z,56.40
2018-05-19T00:08:26.851Z,62.30
2018-05-19T00:09:26.865Z,51.40
2018-05-19T00:10:26.890Z,53.80
2018-05-19T00:11:26.915Z,57.10
2018-05-19T00:12:26.931Z,57.80
2018-05-19T00:13:26.944Z,54.40
2018-05-19T00:14:26.970Z,58.90
2018-05-19T00:15:26.986Z,60.90
2018-05-19T00:16:27.009Z,56.30
2018-05-19T00:17:27.040Z,56.50
2018-05-19T00:18:27.056Z,58.90
2018-05-19T00:19:27.074Z,61.80
2018-05-19T00:20:27.166Z,57.90
2018-05-19T00:21:27.116Z,55.50
2018-05-19T00:22:27.127Z,52.90
2018-05-19T00:23:27.153Z,55.30
2018-05-19T00:24:27.167Z,54.90
2018-05-19T00:25:27.192Z,61.50
2018-05-19T00:26:27.208Z,53.70
2018-05-19T00:27:27.232Z,66.80
2018-05-19T00:28:27.246Z,61.70
2018-05-19T00:29:27.304Z,60.90
2018-05-19T00:30:27.289Z,61.80
2018-05-19T00:31:27.311Z,58.00
2018-05-19T00:32:27.326Z,56.60
2018-05-19T00:33:27.356Z,62.30
2018-05-19T00:34:27.364Z,62.60
2018-05-19T00:35:27.391Z,63.30
2018-05-19T00:36:27.415Z,53.00
2018-05-19T00:37:27.429Z,59.30
2018-05-19T00:38:27.455Z,62.80
2018-05-19T00:39:27.682Z,57.80
2018-05-19T00:40:27.494Z,65.60
2018-05-19T00:41:27.509Z,61.20
2018-05-19T00:42:27.535Z,63.00
2018-05-19T00:43:27.547Z,61.30
2018-05-19T00:44:27.573Z,60.60
2018-05-19T00:45:27.587Z,63.80
2018-05-19T00:46:27.617Z,55.00
2018-05-19T00:47:27.626Z,68.10
2018-05-19T00:48:27.653Z,56.70
2018-05-19T00:49:27.667Z,58.30
2018-05-19T00:50:27.692Z,62.10
2018-05-19T00:51:27.705Z,59.40
2018-05-19T00:52:27.731Z,64.20
2018-05-19T00:53:27.746Z,59.10
2018-05-19T00:54:27.772Z,54.70
2018-05-19T00:55:27.785Z,58.10
2018-05-19T00:56:27.810Z,57.70
2018-05-19T00:57:27.836Z,55.50
2018-05-19T00:58:27.851Z,59.40
2018-05-19T00:59:27.878Z,63.90
2018-05-19T01:00:27.893Z,63.60
2018-05-19T01:01:27.916Z,64.70
2018-05-19T01:02:28.279Z,58.20
2018-05-19T01:03:27.955Z,67.30
2018-05-19T01:04:27.969Z,60.30
2018-05-19T01:05:27.996Z,59.10
2018-05-19T01:06:28.008Z,61.60
2018-05-19T01:07:28.034Z,61.30
2018-05-19T01:08:28.048Z,51.30
2018-05-19T01:09:28.072Z,56.30
2018-05-19T01:10:28.087Z,61.00
2018-05-19T01:11:28.115Z,57.30
2018-05-19T01:12:28.127Z,56.30
2018-05-19T01:13:28.165Z,59.00
2018-05-19T01:14:28.167Z,60.00
2018-05-19T01:15:28.192Z,57.30
2018-05-19T01:16:28.206Z,61.90
2018-05-19T01:17:28.230Z,53.50
2018-05-19T01:18:28.256Z,66.40
2018-05-19T01:19:28.270Z,58.90
2018-05-19T01:20:28.307Z,59.40
2018-05-19T01:21:28.311Z,53.70
2018-05-19T01:22:28.335Z,62.50
2018-05-19T01:23:28.352Z,59.20
2018-05-19T01:24:28.376Z,65.10
2018-05-19T01:25:28.388Z,60.20
2018-05-19T01:26:28.414Z,56.70
2018-05-19T01:27:28.433Z,61.80
2018-05-19T01:28:28.455Z,61.40
2018-05-19T01:29:28.467Z,62.70
2018-05-19T01:30:28.493Z,62.90
2018-05-19T01:31:28.512Z,65.90
2018-05-19T01:32:28.535Z,57.00
2018-05-19T01:33:28.546Z,56.40
2018-05-19T01:34:28.585Z,56.10
2018-05-19T01:35:28.587Z,56.10
2018-05-19T01:36:28.612Z,56.60
2018-05-19T01:37:28.625Z,61.20
2018-05-19T01:38:28.651Z,53.60
2018-05-19T01:39:28.665Z,58.60
2018-05-19T01:40:28.692Z,51.70
2018-05-19T01:41:28.704Z,57.60
2018-05-19T01:42:28.732Z,63.70
2018-05-19T01:43:28.744Z,61.20
2018-05-19T01:44:28.774Z,64.60
2018-05-19T01:45:28.831Z,55.10
2018-05-19T01:46:28.809Z,56.70
2018-05-19T01:47:28.836Z,52.50
2018-05-19T01:48:28.849Z,62.60
2018-05-19T01:49:28.879Z,62.80
2018-05-19T01:50:28.888Z,60.50
2018-05-19T01:51:28.915Z,68.50
2018-05-19T01:52:28.928Z,62.80
2018-05-19T01:53:28.955Z,59.90
2018-05-19T01:54:28.968Z,72.10
2018-05-19T01:55:28.994Z,57.60
2018-05-19T01:56:29.008Z,62.50
2018-05-19T01:57:29.034Z,64.70
2018-05-19T01:58:29.046Z,63.40
2018-05-19T01:59:29.075Z,54.10
2018-05-19T02:00:29.087Z,60.50
2018-05-19T02:01:29.111Z,77.60
2018-05-19T02:02:29.125Z,52.20
2018-05-19T02:03:29.153Z,53.10
2018-05-19T02:04:29.166Z,57.50
2018-05-19T02:05:29.191Z,58.70
2018-05-19T02:06:29.205Z,56.70
2018-05-19T02:07:29.229Z,59.30
2018-05-19T02:08:29.244Z,52.70
2018-05-19T02:09:29.271Z,58.70
2018-05-19T02:10:29.285Z,57.20
2018-05-19T02:11:29.309Z,59.30
2018-05-19T02:12:29.324Z,55.30
2018-05-19T02:13:29.349Z,61.40
2018-05-19T02:14:29.362Z,58.80
2018-05-19T02:15:29.389Z,58.20
2018-05-19T02:16:29.414Z,61.50
2018-05-19T02:17:29.428Z,66.90
2018-05-19T02:18:29.441Z,56.80
2018-05-19T02:19:29.468Z,52.70
2018-05-19T02:20:29.481Z,62.60
2018-05-19T02:21:29.507Z,59.30
2018-05-19T02:22:29.520Z,59.30
2018-05-19T02:23:29.547Z,61.70
2018-05-19T02:24:29.560Z,56.70
2018-05-19T02:25:29.587Z,61.20
2018-05-19T02:26:29.599Z,56.80
2018-05-19T02:27:29.625Z,67.30
2018-05-19T02:28:29.640Z,64.60
2018-05-19T02:29:29.669Z,53.90
2018-05-19T02:30:29.679Z,52.30
2018-05-19T02:31:29.704Z,61.80
2018-05-19T02:32:29.719Z,56.80
2018-05-19T02:33:29.744Z,61.40
2018-05-19T02:34:29.771Z,58.70
2018-05-19T02:35:29.785Z,65.60
2018-05-19T02:36:29.810Z,60.00
2018-05-19T02:37:29.831Z,57.80
2018-05-19T02:38:29.851Z,61.20
2018-05-19T02:39:29.861Z,55.40
2018-05-19T02:40:29.887Z,62.30
2018-05-19T02:41:29.901Z,66.20
2018-05-19T02:42:29.929Z,58.80
2018-05-19T02:43:29.948Z,59.60
2018-05-19T02:44:29.967Z,60.80
2018-05-19T02:45:29.979Z,55.80
2018-05-19T02:46:30.007Z,58.20
2018-05-19T02:47:30.019Z,54.40
2018-05-19T02:48:30.048Z,57.10
2018-05-19T02:49:30.060Z,68.60
2018-05-19T02:50:30.085Z,56.20
2018-05-19T02:51:30.099Z,66.50
2018-05-19T02:52:30.125Z,55.30
2018-05-19T02:53:30.139Z,54.00
2018-05-19T02:54:30.165Z,54.00
2018-05-19T02:55:30.178Z,61.00
2018-05-19T02:56:30.221Z,60.80
2018-05-19T02:57:30.217Z,63.60
2018-05-19T02:58:30.244Z,54.00
2018-05-19T02:59:30.256Z,60.80
2018-05-19T03:00:30.282Z,57.90
2018-05-19T03:01:30.297Z,56.20
2018-05-19T03:02:30.323Z,58.60
2018-05-19T03:03:30.335Z,55.60
2018-05-19T03:04:30.374Z,61.20
2018-05-19T03:05:30.376Z,53.50
2018-05-19T03:06:30.403Z,63.40
2018-05-19T03:07:30.417Z,52.40
2018-05-19T03:08:30.440Z,60.40
2018-05-19T03:09:30.466Z,60.40
2018-05-19T03:10:30.486Z,60.40
2018-05-19T03:11:30.507Z,61.60
2018-05-19T03:12:30.520Z,55.00
2018-05-19T03:13:30.545Z,57.20
2018-05-19T03:14:30.562Z,55.50
2018-05-19T03:15:30.585Z,60.70
2018-05-19T03:16:30.599Z,58.80
2018-05-19T03:17:30.624Z,51.80
2018-05-19T03:18:30.638Z,54.00
2018-05-19T03:19:30.665Z,55.60
2018-05-19T03:20:30.676Z,60.40
2018-05-19T03:21:30.703Z,63.80
2018-05-19T03:22:30.716Z,57.40
2018-05-19T03:23:30.746Z,55.50
2018-05-19T03:24:30.756Z,59.10
2018-05-19T03:25:30.795Z,52.30
2018-05-19T03:26:30.799Z,54.70
2018-05-19T03:27:30.821Z,46.70
2018-05-19T03:28:30.835Z,56.20
2018-05-19T03:29:30.860Z,56.30
2018-05-19T03:30:30.879Z,52.00
2018-05-19T03:31:30.901Z,57.40
2018-05-19T03:32:30.913Z,58.20
2018-05-19T03:33:30.940Z,56.80
2018-05-19T03:34:30.954Z,52.10
2018-05-19T03:35:30.980Z,54.50
2018-05-19T03:36:30.992Z,53.90
2018-05-19T03:37:31.019Z,54.60
2018-05-19T03:38:31.048Z,60.00
2018-05-19T03:39:31.058Z,47.00
2018-05-19T03:40:31.085Z,51.00
2018-05-19T03:41:31.097Z,56.20
2018-05-19T03:42:31.123Z,50.50
2018-05-19T03:43:31.137Z,56.10
2018-05-19T03:44:31.167Z,50.40
2018-05-19T03:45:31.177Z,59.60
2018-05-19T03:46:31.201Z,51.90
2018-05-19T03:47:31.217Z,46.60
2018-05-19T03:48:31.243Z,57.00
2018-05-19T03:49:31.255Z,52.60
2018-05-19T03:50:31.281Z,56.50
2018-05-19T03:51:31.296Z,50.50
2018-05-19T03:52:31.321Z,47.90
2018-05-19T03:53:31.335Z,53.10
2018-05-19T03:54:31.362Z,47.40
2018-05-19T03:55:31.374Z,52.20
2018-05-19T03:56:31.400Z,56.20
2018-05-19T03:57:31.415Z,55.20
2018-05-19T03:58:31.438Z,46.60
2018-05-19T03:59:31.464Z,50.40
2018-05-19T04:00:31.479Z,54.30
2018-05-19T04:01:31.504Z,55.00
2018-05-19T04:02:31.517Z,57.10
2018-05-19T04:03:31.543Z,48.80
2018-05-19T04:04:31.557Z,48.40
2018-05-19T04:05:31.583Z,51.20
2018-05-19T04:06:31.596Z,54.30
2018-05-19T04:07:31.624Z,50.40
2018-05-19T04:08:31.636Z,52.40
2018-05-19T04:09:31.663Z,47.00
2018-05-19T04:10:31.676Z,47.40
2018-05-19T04:11:31.702Z,53.90
2018-05-19T04:12:31.730Z,53.10
2018-05-19T04:13:31.747Z,54.80
2018-05-19T04:14:31.767Z,60.00
2018-05-19T04:15:31.781Z,51.10
2018-05-19T04:16:31.806Z,56.40
2018-05-19T04:17:31.821Z,51.70
2018-05-19T04:18:31.846Z,55.40
2018-05-19T04:19:31.859Z,57.70
2018-05-19T04:20:31.886Z,52.40
2018-05-19T04:21:31.915Z,58.90
2018-05-19T04:22:31.926Z,62.30
2018-05-19T04:23:31.940Z,56.80
2018-05-19T04:24:31.965Z,54.10
2018-05-19T04:25:31.991Z,54.00
2018-05-19T04:26:32.007Z,59.30
2018-05-19T04:27:32.034Z,52.20
2018-05-19T04:28:32.043Z,56.80
2018-05-19T04:29:32.069Z,49.60
2018-05-19T04:30:32.083Z,52.30
2018-05-19T04:31:32.109Z,51.00
2018-05-19T04:32:32.123Z,55.70
2018-05-19T04:33:32.148Z,54.20
2018-05-19T04:34:32.173Z,46.70
2018-05-19T04:35:32.188Z,61.50
2018-05-19T04:36:32.214Z,56.50
2018-05-19T04:37:32.227Z,55.30
2018-05-19T04:38:32.253Z,49.40
2018-05-19T04:39:32.267Z,47.40
2018-05-19T04:40:32.293Z,49.60
2018-05-19T04:41:32.306Z,56.00
2018-05-19T04:42:32.331Z,49.10
2018-05-19T04:43:32.357Z,56.20
2018-05-19T04:44:32.372Z,48.30
2018-05-19T04:45:32.397Z,53.60
2018-05-19T04:46:32.415Z,56.60
2018-05-19T04:47:32.437Z,49.50
2018-05-19T04:48:32.450Z,52.40
2018-05-19T04:49:32.477Z,55.60
2018-05-19T04:50:32.492Z,44.50
2018-05-19T04:51:32.766Z,50.50
2018-05-19T04:52:32.541Z,52.20
2018-05-19T04:53:32.555Z,46.00
2018-05-19T04:54:32.581Z,50.90
2018-05-19T04:55:32.597Z,47.80
2018-05-19T04:56:32.620Z,51.80
2018-05-19T04:57:32.639Z,50.90
2018-05-19T04:58:32.660Z,52.00
2018-05-19T04:59:32.686Z,54.60
2018-05-19T05:00:32.712Z,51.00
2018-05-19T05:01:32.730Z,45.50
2018-05-19T05:02:32.739Z,52.90
2018-05-19T05:03:32.764Z,51.00
2018-05-19T05:04:32.779Z,55.40
2018-05-19T05:05:32.806Z,55.80
2018-05-19T05:06:32.830Z,57.70
2018-05-19T05:07:32.844Z,53.60
2018-05-19T05:08:32.872Z,57.30
2018-05-19T05:09:32.883Z,46.20
2018-05-19T05:10:32.915Z,48.20
2018-05-19T05:11:32.934Z,51.00
2018-05-19T05:12:33.300Z,52.60
2018-05-19T05:13:32.976Z,49.70
2018-05-19T05:14:32.989Z,44.90
2018-05-19T05:15:33.015Z,45.90
2018-05-19T05:16:33.040Z,44.40
2018-05-19T05:17:33.055Z,45.50
2018-05-19T05:18:33.081Z,46.30
2018-05-19T05:19:33.094Z,46.70
2018-05-19T05:20:33.121Z,46.80
2018-05-19T05:21:33.146Z,46.60
2018-05-19T05:22:33.160Z,44.40
2018-05-19T05:23:33.189Z,46.30
2018-05-19T05:24:33.198Z,49.10
2018-05-19T05:25:33.224Z,44.60
2018-05-19T05:26:33.250Z,42.00
2018-05-19T05:27:33.265Z,42.50
2018-05-19T05:28:33.290Z,42.70
2018-05-19T05:29:33.303Z,42.50
2018-05-19T05:30:33.330Z,40.40
2018-05-19T05:32:33.370Z,34.70
2018-05-19T05:33:33.396Z,39.10
2018-05-19T05:34:33.410Z,35.90
2018-05-19T05:35:33.439Z,36.10
2018-05-19T05:36:33.462Z,41.10
2018-05-19T05:37:33.479Z,41.10
2018-05-19T05:38:33.500Z,35.00
2018-05-19T05:39:33.526Z,37.90
2018-05-19T05:40:33.540Z,33.50
2018-05-19T05:41:33.565Z,32.90
2018-05-19T05:42:33.591Z,34.90
2018-05-19T05:43:33.605Z,35.10
2018-05-19T05:44:33.630Z,43.50
2018-05-19T05:45:33.645Z,35.70
2018-05-19T05:46:33.671Z,37.40
2018-05-19T05:47:33.697Z,37.20
2018-05-19T05:48:33.709Z,38.70
2018-05-19T05:49:33.737Z,36.60
2018-05-19T05:50:33.762Z,41.50
2018-05-19T05:51:33.776Z,42.60
2018-05-19T05:52:33.802Z,37.00
2018-05-19T05:53:33.828Z,36.40
2018-05-19T05:54:33.841Z,42.80
2018-05-19T05:55:33.872Z,38.80
2018-05-19T05:56:33.881Z,38.20
2018-05-19T05:57:33.907Z,36.90
2018-05-19T05:58:33.932Z,42.30
2018-05-19T05:59:33.950Z,35.60
2018-05-19T06:00:33.972Z,38.80
2018-05-19T06:01:33.999Z,40.20
2018-05-19T06:02:34.011Z,32.00
2018-05-19T06:03:34.040Z,35.00
2018-05-19T06:04:34.063Z,40.90
2018-05-19T06:05:34.076Z,36.00
2018-05-19T06:06:34.103Z,41.10
2018-05-19T06:07:34.129Z,39.80
2018-05-19T06:08:34.144Z,29.20
2018-05-19T06:09:34.168Z,34.90
2018-05-19T06:10:34.193Z,33.00
2018-05-19T06:11:34.223Z,29.00
2018-05-19T06:12:34.234Z,36.50
2018-05-19T06:13:34.262Z,28.40
2018-05-19T06:14:34.285Z,29.30
2018-05-19T06:15:34.650Z,35.00
2018-05-19T06:16:34.325Z,33.40
2018-05-19T06:17:34.351Z,36.30
2018-05-19T06:18:34.390Z,31.00
2018-05-19T06:19:34.391Z,31.10
2018-05-19T06:20:34.766Z,34.40
2018-05-19T06:21:34.443Z,44.50
2018-05-19T06:22:34.470Z,37.50
2018-05-19T06:23:34.482Z,34.60
2018-05-19T06:24:34.507Z,36.60
2018-05-19T06:25:34.548Z,37.80
2018-05-19T06:26:34.560Z,38.50
2018-05-19T06:27:34.573Z,35.00
2018-05-19T06:28:34.611Z,35.60
2018-05-19T06:29:34.625Z,27.80
2018-05-19T06:30:34.656Z,32.70
2018-05-19T06:31:34.668Z,35.60
2018-05-19T06:32:34.704Z,29.50
2018-05-19T06:33:34.716Z,34.50
2018-05-19T06:34:34.746Z,30.50
2018-05-19T06:35:34.756Z,32.10
2018-05-19T06:36:34.784Z,31.90
2018-05-19T06:37:34.809Z,28.00
2018-05-19T06:38:34.836Z,30.80
2018-05-19T06:39:34.861Z,32.90
2018-05-19T06:40:34.887Z,24.90
2018-05-19T06:41:34.913Z,24.90
2018-05-19T06:42:34.940Z,29.20
2018-05-19T06:43:34.959Z,31.60
2018-05-19T06:44:34.977Z,26.80
2018-05-19T06:45:35.004Z,28.30
2018-05-19T06:46:35.030Z,26.20
2018-05-19T06:47:35.055Z,27.50
2018-05-19T06:48:35.081Z,26.60
2018-05-19T06:49:35.107Z,25.10
2018-05-19T06:50:35.147Z,23.70
2018-05-19T06:51:35.173Z,25.30
2018-05-19T06:52:35.198Z,21.60
2018-05-19T06:53:35.223Z,24.90
2018-05-19T06:55:35.323Z,19.00
2018-05-19T06:56:35.303Z,21.80
2018-05-19T06:57:35.328Z,21.60
2018-05-19T06:58:35.366Z,22.30
2018-05-19T06:59:35.605Z,19.70
2018-05-19T07:00:35.419Z,21.00
2018-05-19T07:01:35.793Z,23.20
2018-05-19T07:02:35.508Z,20.10
2018-05-19T07:03:35.509Z,18.20
2018-05-19T07:04:35.535Z,18.50
2018-05-19T07:05:35.561Z,20.50
2018-05-19T07:06:35.588Z,21.50
2018-05-19T07:07:35.624Z,21.60
2018-05-19T07:08:35.650Z,19.60
2018-05-19T07:09:35.744Z,17.80
2018-05-19T07:10:35.704Z,16.20
2018-05-19T07:11:35.742Z,17.20
2018-05-19T07:12:35.971Z,18.90
2018-05-19T07:13:35.798Z,18.90
2018-05-19T07:14:35.831Z,21.50
2018-05-19T07:15:35.859Z,18.00
2018-05-19T07:16:35.884Z,18.90
2018-05-19T07:17:35.910Z,18.80
2018-05-19T07:18:35.949Z,17.70
2018-05-19T07:19:35.975Z,20.60
2018-05-19T07:20:36.202Z,21.30
2018-05-19T07:21:36.039Z,24.10
2018-05-19T07:23:36.091Z,22.90
2018-05-19T07:24:36.130Z,21.20
2018-05-19T07:25:36.155Z,18.30
2018-05-19T07:26:36.182Z,18.20
2018-05-19T07:27:36.299Z,21.50
2018-05-19T07:28:36.259Z,17.90
2018-05-19T07:29:36.285Z,21.50
2018-05-19T07:30:36.313Z,23.40
2018-05-19T07:31:36.547Z,24.80
2018-05-19T07:32:36.375Z,19.90
2018-05-19T07:34:36.439Z,21.90
2018-05-19T07:35:36.503Z,22.10
2018-05-19T07:36:36.491Z,18.90
2018-05-19T07:37:36.532Z,19.90
2018-05-19T07:39:36.594Z,18.30
2018-05-19T07:40:36.620Z,21.70
2018-05-19T07:41:37.008Z,15.20
2018-05-19T07:42:36.686Z,18.00
2018-05-19T07:43:36.711Z,18.80
2018-05-19T07:44:36.749Z,20.30
2018-05-19T07:45:36.776Z,19.00
2018-05-19T07:46:36.813Z,16.90
2018-05-19T07:47:36.839Z,16.50
2018-05-19T07:48:36.879Z,15.20
2018-05-19T07:49:36.910Z,17.40
2018-05-19T07:50:36.942Z,16.70
2018-05-19T07:51:36.969Z,15.60
2018-05-19T07:52:37.007Z,17.30
2018-05-19T07:53:37.033Z,11.70
2018-05-19T07:54:37.076Z,13.50
2018-05-19T07:56:37.135Z,7.80
2018-05-19T07:57:37.164Z,9.10
2018-05-19T08:00:37.265Z,8.90
2018-05-19T08:01:37.292Z,6.70
2018-05-19T08:02:37.331Z,8.40
2018-05-19T08:03:37.415Z,8.30
2018-05-19T08:04:37.395Z,6.20
2018-05-19T08:05:37.425Z,7.90
2018-05-19T08:06:37.458Z,6.70
2018-05-19T08:07:37.485Z,9.40
2018-05-19T08:08:37.513Z,7.30
2018-05-19T08:09:37.557Z,5.10
2018-05-19T08:10:37.577Z,5.30
2018-05-19T08:11:37.613Z,6.90
2018-05-19T08:12:37.639Z,11.00
2018-05-19T08:13:37.667Z,7.00
2018-05-19T08:14:37.705Z,7.50
2018-05-19T08:15:37.731Z,4.30
2018-05-19T08:16:37.768Z,6.80
2018-05-19T08:17:37.794Z,5.10
2018-05-19T08:18:37.823Z,6.30
2018-05-19T08:19:37.859Z,9.20
2018-05-19T08:20:37.886Z,5.10
2018-05-19T08:21:38.125Z,9.10
2018-05-19T08:22:37.950Z,4.40
2018-05-19T08:23:37.974Z,5.80
2018-05-19T08:24:38.014Z,7.00
2018-05-19T08:25:38.040Z,7.20
2018-05-19T08:26:38.078Z,7.30
2018-05-19T08:27:38.105Z,4.30
2018-05-19T08:29:38.169Z,4.40
2018-05-19T08:30:38.195Z,7.80
2018-05-19T08:31:38.221Z,5.00
2018-05-19T08:32:38.259Z,6.00
2018-05-19T08:33:38.285Z,4.90
2018-05-19T08:35:38.350Z,5.50
2018-05-19T08:36:38.375Z,5.30
2018-05-19T08:37:38.406Z,3.60
2018-05-19T08:38:38.439Z,6.60
2018-05-19T08:39:38.465Z,5.00
2018-05-19T08:41:38.531Z,3.30
2018-05-19T08:42:38.557Z,7.70
2018-05-19T08:43:38.583Z,5.00
2018-05-19T08:44:38.620Z,4.40
2018-05-19T08:45:38.650Z,5.40
2018-05-19T08:46:38.673Z,8.70
2018-05-19T08:47:39.049Z,4.80
2018-05-19T08:48:38.738Z,3.30
2018-05-19T08:49:38.763Z,3.90
2018-05-19T08:50:38.841Z,4.70
2018-05-19T08:51:38.840Z,3.10
2018-05-19T08:52:38.853Z,4.20
2018-05-19T08:53:38.880Z,4.00
2018-05-19T08:54:38.919Z,3.70
2018-05-19T08:55:38.948Z,4.00
2018-05-19T08:56:38.982Z,4.30
2018-05-19T08:57:39.008Z,5.30
2018-05-19T08:58:39.039Z,5.00
2018-05-19T08:59:39.074Z,2.50
2018-05-19T09:00:39.099Z,3.90
2018-05-19T09:01:39.125Z,3.80
2018-05-19T09:02:39.163Z,2.30
2018-05-19T09:06:39.353Z,2.30
2018-05-19T09:07:39.319Z,3.80
2018-05-19T09:08:39.348Z,3.20
2018-05-19T09:09:39.383Z,1.90
2018-05-19T09:10:39.409Z,2.40
2018-05-19T09:11:39.435Z,2.30
2018-05-19T09:12:39.479Z,4.10
2018-05-19T09:13:39.512Z,3.20
2018-05-19T09:14:39.538Z,2.00
2018-05-19T09:15:39.564Z,5.40
2018-05-19T09:16:39.590Z,2.30
2018-05-19T09:17:39.627Z,4.90
2018-05-19T09:18:39.654Z,2.70
2018-05-19T09:19:39.694Z,3.50
2018-05-19T09:20:39.719Z,4.10
2018-05-19T09:21:39.745Z,2.20
2018-05-19T09:23:39.809Z,2.70
2018-05-19T09:24:39.847Z,4.70
2018-05-19T09:25:39.874Z,5.20
2018-05-19T09:26:39.911Z,2.40
2018-05-19T09:27:39.938Z,4.00
2018-05-19T09:28:39.963Z,2.50
2018-05-19T09:29:40.091Z,2.80
2018-05-19T09:30:40.029Z,3.10
2018-05-19T09:31:40.054Z,2.40
2018-05-19T09:32:40.092Z,4.70
2018-05-19T09:33:40.119Z,6.90
2018-05-19T09:34:40.167Z,4.60
2018-05-19T09:35:40.213Z,3.40
2018-05-19T09:36:40.221Z,3.30
2018-05-19T09:38:40.287Z,2.50
2018-05-19T09:39:40.316Z,2.50
2018-05-19T09:40:40.349Z,3.60
2018-05-19T09:41:40.390Z,2.30
2018-05-19T09:42:40.405Z,2.10
2018-05-19T09:43:40.441Z,2.00
2018-05-19T09:44:40.468Z,2.50
2018-05-19T09:45:40.505Z,2.10
2018-05-19T09:46:40.532Z,4.50
2018-05-19T09:47:40.579Z,2.40
2018-05-19T09:48:40.596Z,2.40
2018-05-19T09:49:40.636Z,2.80
2018-05-19T09:50:40.662Z,3.20
2018-05-19T09:51:40.699Z,3.00
2018-05-19T09:52:40.928Z,5.50
2018-05-19T09:53:40.763Z,3.00
2018-05-19T09:54:40.789Z,1.80
2018-05-19T09:55:40.828Z,2.20
2018-05-19T09:56:40.854Z,3.00
2018-05-19T09:57:40.892Z,2.90
2018-05-19T09:58:40.932Z,1.50
2018-05-19T09:59:40.957Z,3.00
2018-05-19T10:00:40.995Z,4.10
2018-05-19T10:01:41.042Z,3.60
2018-05-19T10:02:41.062Z,2.00
2018-05-19T10:03:41.099Z,2.90
2018-05-19T10:04:41.124Z,2.60
2018-05-19T10:05:41.163Z,1.80
2018-05-19T10:06:41.203Z,4.20
2018-05-19T10:07:41.232Z,3.40
2018-05-19T10:08:41.266Z,4.20
2018-05-19T10:09:41.305Z,3.10
2018-05-19T10:10:41.376Z,2.10
2018-05-19T10:11:41.466Z,5.50
2018-05-19T10:12:41.407Z,1.40
2018-05-19T10:13:41.433Z,3.40
2018-05-19T10:14:41.475Z,2.70
2018-05-19T10:15:41.523Z,2.20
2018-05-19T10:16:41.550Z,4.20
2018-05-19T10:17:41.575Z,4.10
2018-05-19T10:18:41.613Z,2.80
2018-05-19T10:19:41.652Z,2.40
2018-05-19T10:20:41.690Z,4.10
2018-05-19T10:21:41.716Z,3.50
2018-05-19T10:22:41.995Z,2.30
2018-05-19T10:23:41.794Z,3.40
2018-05-19T10:24:41.880Z,1.90
2018-05-19T10:25:41.869Z,3.80
2018-05-19T10:26:41.894Z,1.70
2018-05-19T10:27:41.934Z,3.50
2018-05-19T10:28:41.972Z,1.90
2018-05-19T10:29:42.361Z,2.40
2018-05-19T10:30:42.039Z,3.20
2018-05-19T10:31:42.075Z,3.60
2018-05-19T10:32:42.114Z,1.40
2018-05-19T10:33:42.155Z,4.80
2018-05-19T10:34:42.178Z,2.20
2018-05-19T10:35:42.217Z,2.60
2018-05-19T10:36:42.255Z,1.90
2018-05-19T10:37:42.294Z,2.00
2018-05-19T10:38:42.334Z,2.20
2018-05-19T10:39:42.358Z,5.30
2018-05-19T10:40:42.399Z,2.30
2018-05-19T10:41:42.436Z,3.30
2018-05-19T10:42:42.475Z,2.20
2018-05-19T10:43:42.512Z,1.30
2018-05-19T10:44:42.551Z,2.00
2018-05-19T10:45:42.598Z,2.40
2018-05-19T10:46:42.619Z,1.90
2018-05-19T10:47:42.865Z,2.30
2018-05-19T10:48:42.693Z,3.30
2018-05-19T10:49:42.734Z,3.50
2018-05-19T10:50:42.771Z,2.70
2018-05-19T10:51:42.808Z,2.10
2018-05-19T10:52:42.846Z,3.50
2018-05-19T10:53:42.921Z,4.30
2018-05-19T10:54:42.924Z,3.00
2018-05-19T10:55:42.973Z,1.90
2018-05-19T10:56:43.002Z,2.30
2018-05-19T10:57:43.051Z,2.70
2018-05-19T10:58:43.091Z,1.50
2018-05-19T10:59:43.129Z,2.90
2018-05-19T11:00:43.167Z,1.80
2018-05-19T11:02:43.245Z,2.50
2018-05-19T11:03:43.282Z,2.20
2018-05-19T11:04:43.320Z,1.50
2018-05-19T11:05:43.722Z,2.10
2018-05-19T11:06:43.414Z,2.30
2018-05-19T11:07:43.449Z,2.10
2018-05-19T11:08:43.487Z,4.10
2018-05-19T11:09:43.527Z,4.10
2018-05-19T11:11:43.616Z,1.60
2018-05-19T11:12:43.860Z,2.20
2018-05-19T11:13:43.692Z,3.20
2018-05-19T11:14:43.746Z,2.70
2018-05-19T11:15:43.781Z,1.90
2018-05-19T11:16:43.819Z,2.20
2018-05-19T11:17:44.070Z,3.20
2018-05-19T11:18:44.021Z,3.00
2018-05-19T11:19:43.948Z,2.30
2018-05-19T11:20:43.986Z,4.90
2018-05-19T11:21:44.028Z,4.40
2018-05-19T11:22:44.063Z,1.80
2018-05-19T11:23:44.120Z,1.60
2018-05-19T11:24:44.165Z,2.30
2018-05-19T11:25:44.255Z,2.10
2018-05-19T11:26:44.228Z,3.00
2018-05-19T11:27:44.327Z,3.60
2018-05-19T11:28:44.322Z,2.40
2018-05-19T11:29:44.357Z,4.80
2018-05-19T11:30:44.443Z,3.70
2018-05-19T11:31:44.449Z,5.10
2018-05-19T11:32:44.500Z,2.00
2018-05-19T11:33:44.532Z,2.00
2018-05-19T11:34:44.577Z,2.00
2018-05-19T11:35:44.612Z,2.10
2018-05-19T11:36:44.656Z,2.80
2018-05-19T11:37:44.690Z,2.10
2018-05-19T11:38:44.753Z,2.00
2018-05-19T11:39:44.782Z,2.40
2018-05-19T11:40:44.817Z,1.70
2018-05-19T11:41:44.858Z,3.30
2018-05-19T11:42:44.909Z,1.50
2018-05-19T11:43:44.945Z,1.40
2018-05-19T11:44:44.986Z,2.20
2018-05-19T11:45:45.035Z,3.30
2018-05-19T11:46:45.094Z,2.50
2018-05-19T11:47:45.113Z,4.30
2018-05-19T11:48:45.200Z,2.50
2018-05-19T11:49:45.202Z,1.60
2018-05-19T11:50:45.261Z,2.30
2018-05-19T11:51:45.280Z,3.30
2018-05-19T11:52:45.317Z,2.80
2018-05-19T11:53:45.357Z,3.10
2018-05-19T11:54:45.408Z,4.90
2018-05-19T11:55:45.448Z,1.60
2018-05-19T11:56:45.485Z,5.30
2018-05-19T11:57:45.725Z,2.80
2018-05-19T11:58:45.574Z,3.10
2018-05-19T11:59:45.613Z,2.00
2018-05-19T12:00:45.651Z,2.00
2018-05-19T12:01:45.890Z,2.30
2018-05-19T12:02:45.966Z,2.00
2018-05-19T12:04:45.816Z,1.60
2018-05-19T12:05:45.864Z,2.80
2018-05-19T12:06:45.893Z,1.80
2018-05-19T12:07:46.281Z,2.80
2018-05-19T12:08:45.971Z,1.70
2018-05-19T12:09:46.009Z,2.10
2018-05-19T12:10:46.047Z,3.80
2018-05-19T12:11:46.161Z,2.20
2018-05-19T12:12:46.125Z,2.20
2018-05-19T12:13:46.163Z,4.20
2018-05-19T12:14:46.208Z,3.60
2018-05-19T12:15:46.240Z,1.70
2018-05-19T12:16:46.279Z,2.70
2018-05-19T12:17:46.319Z,2.20
2018-05-19T12:18:46.558Z,3.20
2018-05-19T12:19:46.407Z,3.30
2018-05-19T12:20:46.432Z,1.70
2018-05-19T12:21:46.471Z,1.90
2018-05-19T12:22:46.554Z,2.40
2018-05-19T12:23:46.750Z,3.50
2018-05-19T12:24:46.586Z,4.10
2018-05-19T12:25:46.625Z,1.90
2018-05-19T12:27:46.713Z,2.10
2018-05-19T12:28:46.743Z,2.40
2018-05-19T12:29:46.779Z,2.10
2018-05-19T12:31:46.859Z,2.70
2018-05-19T12:32:46.894Z,2.00
2018-05-19T12:33:46.937Z,2.00
2018-05-19T12:34:46.970Z,3.10
2018-05-19T12:35:47.009Z,2.30
2018-05-19T12:37:47.088Z,1.80
2018-05-19T12:38:47.126Z,2.70
2018-05-19T12:40:47.215Z,4.40
2018-05-19T12:41:47.253Z,3.90
2018-05-19T12:42:47.292Z,4.30
2018-05-19T12:43:47.330Z,2.90
2018-05-19T12:44:47.369Z,2.90
2018-05-19T12:45:47.406Z,5.60
2018-05-19T12:46:47.445Z,3.00
2018-05-19T12:48:47.756Z,4.60
2018-05-19T12:49:47.560Z,4.20
2018-05-19T12:50:47.599Z,4.90
2018-05-19T12:51:47.637Z,2.80
2018-05-19T12:52:47.878Z,5.60
2018-05-19T12:53:47.715Z,5.30
2018-05-19T12:54:47.768Z,2.30
2018-05-19T12:55:47.804Z,2.90
2018-05-19T12:56:47.842Z,2.50
2018-05-19T12:57:47.881Z,3.20
2018-05-19T12:58:47.924Z,1.70
2018-05-19T12:59:48.160Z,3.50
2018-05-19T13:00:47.996Z,2.60
2018-05-19T13:01:48.092Z,2.90
2018-05-19T13:02:48.079Z,2.10
2018-05-19T13:03:48.127Z,3.50
2018-05-19T13:04:48.164Z,4.00
2018-05-19T13:05:48.503Z,3.30
2018-05-19T13:06:48.239Z,4.30
2018-05-19T13:07:48.278Z,1.80
2018-05-19T13:08:48.317Z,3.40
2018-05-19T13:09:48.369Z,3.30
2018-05-19T13:10:48.393Z,2.70
2018-05-19T13:11:48.433Z,3.10
2018-05-19T13:12:48.483Z,3.00
2018-05-19T13:13:48.522Z,2.70
2018-05-19T13:14:48.560Z,5.00
2018-05-19T13:15:48.603Z,2.90
2018-05-19T13:16:48.636Z,4.30
2018-05-19T13:17:48.676Z,4.30
2018-05-19T13:18:48.714Z,2.20
2018-05-19T13:19:48.753Z,4.00
2018-05-19T13:20:48.793Z,4.10
2018-05-19T13:21:48.841Z,4.00
2018-05-19T13:22:48.880Z,3.80
2018-05-19T13:23:48.923Z,2.80
2018-05-19T13:24:48.957Z,4.80
2018-05-19T13:25:49.085Z,3.40
2018-05-19T13:26:49.037Z,2.00